createdAt,value
2022-11-28T00:00:39.923Z,98.8
2022-11-28T00:01:41.945Z,98.8
2022-11-28T00:02:44.092Z,98.8
2022-11-28T00:03:45.927Z,98.8
2022-11-28T00:04:47.927Z,98.8
2022-11-28T00:05:49.935Z,98.8
2022-11-28T00:06:51.919Z,98.8
2022-11-28T00:07:53.979Z,98.8
2022-11-28T00:08:55.927Z,98.8
2022-11-28T00:09:57.931Z,98.8
2022-11-28T00:10:59.972Z,98.8
2022-11-28T00:12:03.950Z,98.8
2022-11-28T00:13:06.926Z,98.8
2022-11-28T00:14:08.939Z,98.8
2022-11-28T00:15:10.937Z,98.8
2022-11-28T00:16:13.056Z,98.8
2022-11-28T00:17:15.024Z,98.8
2022-11-28T00:18:16.930Z,98.8
2022-11-28T00:19:19.938Z,98.8
2022-11-28T00:20:21.936Z,98.8
2022-11-28T00:21:23.985Z,98.8
2022-11-28T00:22:25.937Z,98.8
2022-11-28T00:23:27.933Z,98.8
2022-11-28T00:24:29.944Z,98.8
2022-11-28T00:25:31.932Z,98.8
2022-11-28T00:26:33.961Z,98.8
2022-11-28T00:27:35.949Z,98.8
2022-11-28T00:28:37.937Z,98.8
2022-11-28T00:29:39.992Z,98.8
2022-11-28T00:30:41.953Z,98.8
2022-11-28T00:31:44.311Z,98.8
2022-11-28T00:32:46.946Z,98.8
2022-11-28T00:33:48.946Z,98.8
2022-11-28T00:34:50.959Z,98.8
2022-11-28T00:35:52.946Z,98.8
2022-11-28T00:36:54.946Z,98.8
2022-11-28T00:37:56.945Z,98.8
2022-11-28T00:38:58.946Z,98.8
2022-11-28T00:40:00.976Z,98.8
2022-11-28T00:41:03.964Z,98.8
2022-11-28T00:42:07.017Z,98.8
2022-11-28T00:43:08.950Z,98.8
2022-11-28T00:44:10.960Z,98.8
2022-11-28T00:45:13.010Z,98.8
2022-11-28T00:46:15.133Z,98.8
2022-11-28T00:47:16.991Z,98.8
2022-11-28T00:48:18.955Z,98.8
2022-11-28T00:49:20.971Z,98.8
2022-11-28T00:50:22.954Z,98.8
2022-11-28T00:51:24.954Z,98.8
2022-11-28T00:52:26.985Z,98.8
2022-11-28T00:53:28.978Z,98.8
2022-11-28T00:54:30.975Z,98.8
2022-11-28T00:55:32.951Z,98.8
2022-11-28T00:56:34.986Z,98.8
2022-11-28T00:57:37.028Z,98.8
2022-11-28T00:58:38.991Z,98.8
2022-11-28T00:59:40.951Z,98.8
2022-11-28T01:00:43.059Z,98.8
2022-11-28T01:01:45.026Z,98.8
2022-11-28T01:02:47.042Z,98.8
2022-11-28T01:03:48.999Z,98.8
2022-11-28T01:04:50.972Z,98.8
2022-11-28T01:05:53.964Z,98.8
2022-11-28T01:06:55.959Z,98.8
2022-11-28T01:07:57.993Z,98.8
2022-11-28T01:09:00.157Z,98.8
2022-11-28T01:10:01.976Z,98.8
2022-11-28T01:11:03.996Z,98.8
2022-11-28T01:12:07.966Z,98.8
2022-11-28T01:13:09.963Z,98.8
2022-11-28T01:14:12.992Z,98.8
2022-11-28T01:15:14.963Z,98.8
2022-11-28T01:16:17.048Z,98.8
2022-11-28T01:17:18.998Z,98.8
2022-11-28T01:18:20.975Z,98.8
2022-11-28T01:19:22.985Z,98.8
2022-11-28T01:20:24.978Z,98.8
2022-11-28T01:21:26.988Z,98.8
2022-11-28T01:22:28.969Z,98.8
2022-11-28T01:23:31.974Z,98.8
2022-11-28T01:24:33.986Z,98.8
2022-11-28T01:25:35.983Z,98.8
2022-11-28T01:26:37.984Z,98.8
2022-11-28T01:27:39.980Z,98.8
2022-11-28T01:28:41.980Z,98.8
2022-11-28T01:29:43.974Z,98.8
2022-11-28T01:30:46.022Z,98.8
2022-11-28T01:31:48.073Z,98.8
2022-11-28T01:32:49.988Z,98.8
2022-11-28T01:33:51.986Z,98.8
2022-11-28T01:34:54.975Z,98.8
2022-11-28T01:35:56.995Z,98.8
2022-11-28T01:36:59.021Z,98.8
2022-11-28T01:38:00.985Z,98.8
2022-11-28T01:39:04.001Z,98.8
2022-11-28T01:40:06.988Z,98.8
2022-11-28T01:41:09.011Z,98.8
2022-11-28T01:42:11.001Z,98.8
2022-11-28T01:43:12.995Z,98.8
2022-11-28T01:44:14.991Z,98.8
2022-11-28T01:45:18.167Z,98.8
2022-11-28T01:46:20.056Z,98.8
2022-11-28T01:47:21.979Z,98.8
2022-11-28T01:48:23.991Z,98.8
2022-11-28T01:49:25.985Z,98.8
2022-11-28T01:50:28.034Z,98.8
2022-11-28T01:51:29.995Z,98.8
2022-11-28T01:52:31.991Z,98.8
2022-11-28T01:53:33.985Z,98.8
2022-11-28T01:54:36.002Z,98.8
2022-11-28T01:55:38.000Z,98.8
2022-11-28T01:56:39.999Z,98.8
2022-11-28T01:57:43.035Z,98.8
2022-11-28T01:58:45.001Z,98.8
2022-11-28T01:59:47.005Z,98.8
2022-11-28T02:01:02.135Z,98.8
2022-11-28T02:01:51.015Z,98.8
2022-11-28T02:02:53.002Z,98.8
2022-11-28T02:03:54.997Z,98.8
2022-11-28T02:04:56.994Z,98.8
2022-11-28T02:05:59.004Z,98.8
2022-11-28T02:07:01.015Z,98.8
2022-11-28T02:08:04.012Z,98.8
2022-11-28T02:09:07.004Z,98.8
2022-11-28T02:10:09.006Z,98.8
2022-11-28T02:11:11.013Z,98.8
2022-11-28T02:12:13.054Z,98.8
2022-11-28T02:13:15.009Z,98.8
2022-11-28T02:14:18.003Z,98.8
2022-11-28T02:15:20.013Z,98.8
2022-11-28T02:16:22.076Z,98.8
2022-11-28T02:17:24.021Z,98.8
2022-11-28T02:18:26.010Z,98.8
2022-11-28T02:19:28.016Z,98.8
2022-11-28T02:20:30.017Z,98.8
2022-11-28T02:21:32.047Z,98.8
2022-11-28T02:22:34.007Z,98.8
2022-11-28T02:23:36.009Z,98.8
2022-11-28T02:24:38.011Z,98.8
2022-11-28T02:25:40.011Z,98.8
2022-11-28T02:26:42.026Z,98.8
2022-11-28T02:27:44.027Z,98.8
2022-11-28T02:28:46.015Z,98.8
2022-11-28T02:29:48.028Z,98.8
2022-11-28T02:30:50.022Z,98.8
2022-11-28T02:31:52.031Z,98.8
2022-11-28T02:32:54.062Z,98.8
2022-11-28T02:33:56.024Z,98.8
2022-11-28T02:34:59.020Z,98.8
2022-11-28T02:36:01.026Z,98.8
2022-11-28T02:37:04.052Z,98.8
2022-11-28T02:38:07.202Z,98.8
2022-11-28T02:39:10.030Z,98.8
2022-11-28T02:40:12.017Z,98.8
2022-11-28T02:41:14.154Z,98.8
2022-11-28T02:42:16.032Z,98.8
2022-11-28T02:43:18.038Z,98.8
2022-11-28T02:44:20.036Z,98.8
2022-11-28T02:45:22.027Z,98.8
2022-11-28T02:46:24.079Z,98.8
2022-11-28T02:47:26.022Z,98.8
2022-11-28T02:48:28.065Z,98.8
2022-11-28T02:49:31.028Z,98.8
2022-11-28T02:50:33.026Z,98.8
2022-11-28T02:51:35.055Z,98.8
2022-11-28T02:52:37.048Z,98.8
2022-11-28T02:53:39.074Z,98.8
2022-11-28T02:54:41.304Z,98.8
2022-11-28T02:55:43.031Z,98.8
2022-11-28T02:56:45.039Z,98.8
2022-11-28T02:57:47.021Z,98.8
2022-11-28T02:58:49.071Z,98.8
2022-11-28T02:59:51.029Z,98.8
2022-11-28T03:00:53.074Z,98.8
2022-11-28T03:01:55.152Z,98.8
2022-11-28T03:02:57.042Z,98.8
2022-11-28T03:03:59.097Z,98.8
2022-11-28T03:05:01.038Z,98.8
2022-11-28T03:06:04.061Z,98.8
2022-11-28T03:07:07.041Z,98.8
2022-11-28T03:08:09.036Z,98.8
2022-11-28T03:09:11.076Z,98.8
2022-11-28T03:10:13.040Z,98.8
2022-11-28T03:11:15.042Z,98.8
2022-11-28T03:12:17.047Z,98.8
2022-11-28T03:13:19.047Z,98.8
2022-11-28T03:14:21.074Z,98.8
2022-11-28T03:15:23.048Z,98.8
2022-11-28T03:16:25.130Z,98.8
2022-11-28T03:17:28.041Z,98.8
2022-11-28T03:18:30.045Z,98.8
2022-11-28T03:19:32.062Z,98.8
2022-11-28T03:20:34.091Z,98.8
2022-11-28T03:21:36.053Z,98.8
2022-11-28T03:22:38.050Z,98.8
2022-11-28T03:23:40.049Z,98.8
2022-11-28T03:24:42.331Z,98.8
2022-11-28T03:25:44.056Z,98.8
2022-11-28T03:26:46.053Z,98.8
2022-11-28T03:27:49.078Z,98.8
2022-11-28T03:28:51.047Z,98.8
2022-11-28T03:29:53.052Z,98.8
2022-11-28T03:30:55.065Z,98.8
2022-11-28T03:31:57.140Z,98.8
2022-11-28T03:32:59.054Z,98.8
2022-11-28T03:34:01.063Z,98.8
2022-11-28T03:35:04.069Z,98.8
2022-11-28T03:36:07.057Z,98.8
2022-11-28T03:37:09.055Z,98.8
2022-11-28T03:38:11.061Z,98.8
2022-11-28T03:39:13.061Z,98.8
2022-11-28T03:40:15.054Z,98.8
2022-11-28T03:41:17.057Z,98.8
2022-11-28T03:42:19.067Z,98.8
2022-11-28T03:43:21.058Z,98.8
2022-11-28T03:44:23.069Z,98.8
2022-11-28T03:45:25.065Z,98.8
2022-11-28T03:46:27.131Z,98.8
2022-11-28T03:47:29.062Z,98.8
2022-11-28T03:48:31.071Z,98.8
2022-11-28T03:49:33.114Z,98.8
2022-11-28T03:50:35.104Z,98.8
2022-11-28T03:51:37.071Z,98.8
2022-11-28T03:52:39.076Z,98.8
2022-11-28T03:53:42.071Z,98.8
2022-11-28T03:54:44.449Z,98.8
2022-11-28T03:55:46.178Z,98.8
2022-11-28T03:56:48.072Z,98.8
2022-11-28T03:57:51.072Z,98.8
2022-11-28T03:58:53.076Z,98.8
2022-11-28T03:59:55.095Z,98.8
2022-11-28T04:00:57.154Z,98.8
2022-11-28T04:01:59.090Z,98.8
2022-11-28T04:03:01.128Z,98.8
2022-11-28T04:04:04.098Z,98.8
2022-11-28T04:05:07.107Z,98.8
2022-11-28T04:06:09.074Z,98.8
2022-11-28T04:07:11.075Z,98.8
2022-11-28T04:08:13.084Z,98.8
2022-11-28T04:09:15.085Z,98.8
2022-11-28T04:10:17.096Z,98.8
2022-11-28T04:11:19.086Z,98.8
2022-11-28T04:12:21.082Z,98.8
2022-11-28T04:13:23.081Z,98.8
2022-11-28T04:14:26.084Z,98.8
2022-11-28T04:15:28.133Z,98.8
2022-11-28T04:16:30.236Z,98.8
2022-11-28T04:17:32.078Z,98.6
2022-11-28T04:18:34.085Z,98.4
2022-11-28T04:19:36.106Z,98.1
2022-11-28T04:20:38.085Z,97.8
2022-11-28T04:21:40.089Z,97.8
2022-11-28T04:22:42.087Z,98.2
2022-11-28T04:23:44.090Z,98.2
2022-11-28T04:24:46.098Z,97.9
2022-11-28T04:25:48.096Z,97.6
2022-11-28T04:26:50.085Z,97.7
2022-11-28T04:27:52.098Z,97.9
2022-11-28T04:28:54.094Z,98
2022-11-28T04:29:57.146Z,98
2022-11-28T04:30:59.093Z,98
2022-11-28T04:32:01.143Z,98.2
2022-11-28T04:33:04.111Z,98.3
2022-11-28T04:34:07.275Z,98.6
2022-11-28T04:35:09.095Z,98.5
2022-11-28T04:36:11.100Z,98.2
2022-11-28T04:37:13.105Z,98.3
2022-11-28T04:38:15.090Z,98.3
2022-11-28T04:39:17.106Z,98.4
2022-11-28T04:40:19.098Z,98.3
2022-11-28T04:41:21.132Z,98.3
2022-11-28T04:42:23.102Z,98.4
2022-11-28T04:43:25.118Z,98.6
2022-11-28T04:44:27.098Z,98.7
2022-11-28T04:45:29.201Z,98.8
2022-11-28T04:46:31.119Z,98.8
2022-11-28T04:47:33.100Z,98.8
2022-11-28T04:48:35.112Z,98.6
2022-11-28T04:49:37.300Z,98.7
2022-11-28T04:50:39.098Z,98.1
2022-11-28T04:51:41.145Z,97.5
2022-11-28T04:52:44.105Z,97.6
2022-11-28T04:53:46.098Z,97.6
2022-11-28T04:54:48.102Z,97.5
2022-11-28T04:55:50.108Z,97.8
2022-11-28T04:56:52.138Z,97.8
2022-11-28T04:57:57.277Z,98.1
2022-11-28T04:58:56.109Z,98.4
2022-11-28T04:59:58.115Z,98.4
2022-11-28T05:01:00.206Z,98.4
2022-11-28T05:02:02.424Z,98.4
2022-11-28T05:03:04.118Z,98.3
2022-11-28T05:04:07.118Z,98.7
2022-11-28T05:05:09.147Z,98.5
2022-11-28T05:06:11.115Z,98.6
2022-11-28T05:07:13.176Z,98.5
2022-11-28T05:08:15.127Z,98.5
2022-11-28T05:09:17.123Z,98.3
2022-11-28T05:10:19.113Z,98.2
2022-11-28T05:11:21.121Z,98.3
2022-11-28T05:12:23.113Z,98.2
2022-11-28T05:13:25.131Z,98.1
2022-11-28T05:14:27.118Z,98
2022-11-28T05:15:29.153Z,97.9
2022-11-28T05:16:31.162Z,97.5
2022-11-28T05:17:35.674Z,97.8
2022-11-28T05:18:35.136Z,98.3
2022-11-28T05:19:37.124Z,98.6
2022-11-28T05:20:39.123Z,98.4
2022-11-28T05:21:41.126Z,97.5
2022-11-28T05:22:43.126Z,96.9
2022-11-28T05:23:45.140Z,97
2022-11-28T05:24:47.163Z,97.5
2022-11-28T05:25:49.131Z,97.6
2022-11-28T05:26:51.134Z,97.8
2022-11-28T05:27:53.131Z,98.2
2022-11-28T05:28:55.147Z,98.2
2022-11-28T05:29:57.130Z,97.6
2022-11-28T05:30:59.130Z,97.4
2022-11-28T05:32:01.184Z,97.6
2022-11-28T05:33:04.140Z,97.6
2022-11-28T05:34:07.161Z,98
2022-11-28T05:35:10.131Z,98.1
2022-11-28T05:36:13.391Z,98
2022-11-28T05:37:14.130Z,98
2022-11-28T05:38:16.137Z,98.1
2022-11-28T05:39:18.174Z,98.3
2022-11-28T05:40:20.142Z,98.4
2022-11-28T05:41:22.137Z,98.4
2022-11-28T05:42:24.134Z,97.9
2022-11-28T05:43:26.145Z,97.5
2022-11-28T05:44:28.180Z,97.6
2022-11-28T05:45:30.218Z,98.1
2022-11-28T05:46:32.148Z,98.3
2022-11-28T05:47:34.147Z,98
2022-11-28T05:48:36.138Z,98.3
2022-11-28T05:49:38.298Z,98.8
2022-11-28T05:50:40.236Z,98.8
2022-11-28T05:51:42.153Z,98.8
2022-11-28T05:52:44.144Z,98.8
2022-11-28T05:53:47.141Z,98.8
2022-11-28T05:54:49.180Z,98.8
2022-11-28T05:55:51.147Z,98.8
2022-11-28T05:56:53.155Z,98.8
2022-11-28T05:57:56.145Z,98.7
2022-11-28T05:58:58.160Z,98.5
2022-11-28T06:00:00.161Z,98.7
2022-11-28T06:01:02.142Z,98.6
2022-11-28T06:02:04.288Z,98.4
2022-11-28T06:03:08.147Z,97.8
2022-11-28T06:04:10.235Z,97.6
2022-11-28T06:05:35.120Z,98.1
2022-11-28T06:06:14.150Z,97.8
2022-11-28T06:07:16.167Z,97.8
2022-11-28T06:08:18.154Z,98
2022-11-28T06:09:25.536Z,98.7
2022-11-28T06:10:23.202Z,98.4
2022-11-28T06:11:25.163Z,97.8
2022-11-28T06:12:27.162Z,97.3
2022-11-28T06:13:29.159Z,97.2
2022-11-28T06:14:31.163Z,97.3
2022-11-28T06:15:37.556Z,97.5
2022-11-28T06:16:35.237Z,98.2
2022-11-28T06:17:37.162Z,98.1
2022-11-28T06:18:39.167Z,98.2
2022-11-28T06:19:42.602Z,98.1
2022-11-28T06:20:45.164Z,98.2
2022-11-28T06:21:47.170Z,98.4
2022-11-28T06:22:49.164Z,98.5
2022-11-28T06:23:51.159Z,98.8
2022-11-28T06:24:54.184Z,98
2022-11-28T06:25:56.159Z,98
2022-11-28T06:26:58.223Z,97.8
2022-11-28T06:28:01.171Z,98
2022-11-28T06:29:04.188Z,97.6
2022-11-28T06:30:07.171Z,97.5
2022-11-28T06:31:09.174Z,98.3
2022-11-28T06:32:11.249Z,98.2
2022-11-28T06:33:13.179Z,98.6
2022-11-28T06:34:15.436Z,98.7
2022-11-28T06:35:17.168Z,98.8
2022-11-28T06:38:24.198Z,97.9
2022-11-28T06:39:26.175Z,97.8
2022-11-28T06:40:28.169Z,97.9
2022-11-28T06:41:30.174Z,97.9
2022-11-28T06:42:32.179Z,98.1
2022-11-28T06:43:34.217Z,98
2022-11-28T06:44:36.179Z,97.3
2022-11-28T06:45:38.254Z,97.3
2022-11-28T06:46:40.184Z,97.2
2022-11-28T06:47:43.174Z,97.5
2022-11-28T06:48:45.212Z,97.6
2022-11-28T06:49:47.179Z,97.5
2022-11-28T06:50:49.190Z,98
2022-11-28T06:51:51.214Z,98.2
2022-11-28T06:52:53.180Z,98.3
2022-11-28T06:53:55.222Z,98.1
2022-11-28T06:54:57.179Z,97.9
2022-11-28T06:55:59.181Z,98.1
2022-11-28T06:57:01.184Z,98.3
2022-11-28T06:58:04.204Z,98.3
2022-11-28T06:59:07.207Z,98.7
2022-11-28T07:00:09.187Z,98.4
2022-11-28T07:01:11.271Z,98.4
2022-11-28T07:02:13.257Z,98.8
2022-11-28T07:03:15.227Z,98.7
2022-11-28T07:04:17.189Z,98.8
2022-11-28T07:05:19.203Z,98.8
2022-11-28T07:06:21.205Z,98.8
2022-11-28T07:07:23.258Z,98.8
2022-11-28T07:08:25.261Z,98.8
2022-11-28T07:09:27.192Z,98.8
2022-11-28T07:10:29.320Z,98.2
2022-11-28T07:11:31.198Z,97.8
2022-11-28T07:12:33.247Z,97.5
2022-11-28T07:13:35.200Z,97.8
2022-11-28T07:14:38.207Z,97.8
2022-11-28T07:15:40.196Z,97.9
2022-11-28T07:16:42.278Z,97.9
2022-11-28T07:17:44.304Z,97.9
2022-11-28T07:18:46.232Z,97.5
2022-11-28T07:19:53.487Z,97.5
2022-11-28T07:20:50.198Z,97.6
2022-11-28T07:21:52.200Z,97.8
2022-11-28T07:22:54.224Z,97.6
2022-11-28T07:23:56.199Z,97.6
2022-11-28T07:24:58.199Z,97.6
2022-11-28T07:26:00.197Z,97.9
2022-11-28T07:27:02.189Z,98
2022-11-28T07:28:04.249Z,98.3
2022-11-28T07:29:08.233Z,98.3
2022-11-28T07:30:11.217Z,97.5
2022-11-28T07:31:13.214Z,97.4
2022-11-28T07:32:15.260Z,97.8
2022-11-28T07:33:17.199Z,97.9
2022-11-28T07:34:19.232Z,98
2022-11-28T07:35:21.204Z,98.4
2022-11-28T07:36:23.207Z,98.3
2022-11-28T07:37:25.202Z,98.1
2022-11-28T07:38:27.205Z,98
2022-11-28T07:39:29.260Z,98
2022-11-28T07:40:31.251Z,98.5
2022-11-28T07:41:33.216Z,98.7
2022-11-28T07:42:35.219Z,98
2022-11-28T07:43:37.220Z,97.6
2022-11-28T07:44:39.254Z,97.5
2022-11-28T07:45:59.480Z,97.2
2022-11-28T07:46:43.348Z,97.2
2022-11-28T07:47:46.213Z,97.5
2022-11-28T07:48:48.211Z,97.8
2022-11-28T07:49:50.230Z,98.1
2022-11-28T07:50:52.220Z,98.2
2022-11-28T07:51:54.255Z,98.2
2022-11-28T07:52:56.219Z,98.4
2022-11-28T07:53:58.220Z,97.9
2022-11-28T07:55:00.273Z,97.8
2022-11-28T07:56:02.229Z,98
2022-11-28T07:57:12.976Z,98.5
2022-11-28T07:58:08.221Z,98
2022-11-28T07:59:10.223Z,97.3
2022-11-28T08:00:12.278Z,97.5
2022-11-28T08:01:14.234Z,97.7
2022-11-28T08:02:16.340Z,97.6
2022-11-28T08:03:18.282Z,97.5
2022-11-28T08:04:21.304Z,97.6
2022-11-28T08:05:23.237Z,98
2022-11-28T08:06:25.227Z,98.3
2022-11-28T08:07:27.314Z,97.7
2022-11-28T08:08:29.228Z,96.8
2022-11-28T08:09:31.259Z,97
2022-11-28T08:10:33.225Z,96.9
2022-11-28T08:11:35.256Z,97.1
2022-11-28T08:12:37.222Z,97.1
2022-11-28T08:13:39.256Z,96.6
2022-11-28T08:14:41.429Z,96.7
2022-11-28T08:15:43.228Z,96.7
2022-11-28T08:16:45.492Z,96.5
2022-11-28T08:17:48.282Z,96.6
2022-11-28T08:18:50.288Z,97.3
2022-11-28T08:19:52.233Z,97.7
2022-11-28T08:20:55.249Z,97.6
2022-11-28T08:21:57.232Z,97.3
2022-11-28T08:22:59.229Z,97
2022-11-28T08:24:01.295Z,97.1
2022-11-28T08:25:04.256Z,96.9
2022-11-28T08:26:07.234Z,96.1
2022-11-28T08:28:11.245Z,96.1
2022-11-28T08:29:13.290Z,96.2
2022-11-28T08:30:15.244Z,96.1
2022-11-28T08:31:17.298Z,96.1
2022-11-28T08:32:19.242Z,96.6
2022-11-28T08:33:21.288Z,96.7
2022-11-28T08:34:23.259Z,96.8
2022-11-28T08:35:25.244Z,96.4
2022-11-28T08:36:29.209Z,95.9
2022-11-28T08:37:30.253Z,95.9
2022-11-28T08:38:32.260Z,96.5
2022-11-28T08:39:34.234Z,96.7
2022-11-28T08:40:36.262Z,96.7
2022-11-28T08:41:38.244Z,96.9
2022-11-28T08:43:42.318Z,96.6
2022-11-28T08:44:44.249Z,96.6
2022-11-28T08:45:46.274Z,96.8
2022-11-28T08:46:48.257Z,97.4
2022-11-28T08:47:51.263Z,97.5
2022-11-28T08:48:53.309Z,97.4
2022-11-28T08:49:55.262Z,97.1
2022-11-28T08:50:57.252Z,97.2
2022-11-28T08:51:59.247Z,97.7
2022-11-28T08:53:07.682Z,97.9
2022-11-28T08:54:04.327Z,98
2022-11-28T08:55:07.258Z,97.9
2022-11-28T08:56:09.256Z,97.5
2022-11-28T08:57:11.275Z,97.4
2022-11-28T08:58:13.260Z,97.1
2022-11-28T08:59:15.287Z,97.6
2022-11-28T09:00:17.303Z,97.5
2022-11-28T09:01:19.304Z,97.1
2022-11-28T09:02:25.742Z,96.5
2022-11-28T09:03:23.351Z,96.2
2022-11-28T09:04:26.400Z,96.5
2022-11-28T09:05:28.256Z,96.3
2022-11-28T09:06:30.270Z,96.8
2022-11-28T09:07:33.358Z,96.8
2022-11-28T09:08:35.263Z,96.7
2022-11-28T09:09:37.315Z,96.5
2022-11-28T09:10:39.262Z,97
2022-11-28T09:11:41.267Z,96.9
2022-11-28T09:12:44.267Z,96.4
2022-11-28T09:13:46.276Z,96.9
2022-11-28T09:14:48.281Z,97
2022-11-28T09:15:52.683Z,96.1
2022-11-28T09:16:53.323Z,95.7
2022-11-28T09:17:56.269Z,95.8
2022-11-28T09:18:58.262Z,96.2
2022-11-28T09:20:00.299Z,95.6
2022-11-28T09:21:02.275Z,96.3
2022-11-28T09:22:04.283Z,96.7
2022-11-28T09:23:07.290Z,96.6
2022-11-28T09:24:09.283Z,96.3
2022-11-28T09:26:13.352Z,95.7
2022-11-28T09:27:34.854Z,95.9
2022-11-28T09:30:34.888Z,96.4
2022-11-28T09:31:34.917Z,96.2
2022-11-28T09:32:34.827Z,96.3
2022-11-28T09:33:34.802Z,96.7
2022-11-28T09:34:34.814Z,96.4
2022-11-28T09:35:34.807Z,96.7
2022-11-28T09:36:34.847Z,97
2022-11-28T09:37:36.320Z,96.8
2022-11-28T09:38:38.308Z,96.8
2022-11-28T09:39:57.390Z,95.7
2022-11-28T09:40:42.316Z,95.6
2022-11-28T09:41:44.361Z,95.8
2022-11-28T09:42:46.320Z,95.2
2022-11-28T09:43:53.466Z,95.1
2022-11-28T09:44:50.311Z,95.1
2022-11-28T09:45:53.348Z,95.4
2022-11-28T09:46:55.356Z,95.5
2022-11-28T09:47:57.311Z,96.3
2022-11-28T09:48:59.322Z,96.6
2022-11-28T09:50:02.317Z,96.4
2022-11-28T09:51:06.316Z,96.2
2022-11-28T09:52:08.408Z,96.3
2022-11-28T09:53:10.327Z,96.2
2022-11-28T09:54:12.330Z,95.9
2022-11-28T09:55:14.322Z,95.8
2022-11-28T09:56:17.320Z,96.1
2022-11-28T09:57:19.374Z,96.1
2022-11-28T09:58:21.325Z,96.2
2022-11-28T09:59:23.330Z,96.6
2022-11-28T10:00:25.321Z,96.1
2022-11-28T10:01:27.329Z,96.1
2022-11-28T10:02:29.353Z,96.1
2022-11-28T10:03:31.483Z,96.1
2022-11-28T10:04:33.468Z,96.4
2022-11-28T10:05:35.369Z,96.1
2022-11-28T10:06:37.349Z,96
2022-11-28T10:07:40.438Z,96.1
2022-11-28T10:08:42.341Z,96.1
2022-11-28T10:09:44.680Z,96.3
2022-11-28T10:10:46.334Z,96.1
2022-11-28T10:11:55.794Z,95.6
2022-11-28T10:12:57.808Z,95.8
2022-11-28T10:14:08.072Z,96.3
2022-11-28T10:15:01.755Z,96.1
2022-11-28T10:16:03.756Z,96.3
2022-11-28T10:17:07.807Z,96.3
2022-11-28T10:18:09.769Z,96.4
2022-11-28T10:19:25.620Z,96.5
2022-11-28T10:20:13.774Z,96.6
2022-11-28T10:21:15.747Z,96.9
2022-11-28T10:22:17.755Z,97.7
2022-11-28T10:23:19.760Z,96.5
2022-11-28T10:24:21.791Z,95.6
2022-11-28T10:25:23.757Z,95.5
2022-11-28T10:26:25.769Z,96
2022-11-28T10:27:27.755Z,96.1
2022-11-28T10:28:29.776Z,95.8
2022-11-28T10:29:31.779Z,96
2022-11-28T10:30:33.867Z,96
2022-11-28T10:31:35.769Z,95.6
2022-11-28T10:32:37.754Z,95.5
2022-11-28T10:33:39.755Z,94.9
2022-11-28T10:34:41.779Z,95.3
2022-11-28T10:35:43.763Z,95.4
2022-11-28T10:36:45.767Z,95.8
2022-11-28T10:37:48.763Z,96.2
2022-11-28T10:38:50.763Z,95.2
2022-11-28T10:39:52.964Z,95
2022-11-28T10:40:54.765Z,95.1
2022-11-28T10:41:56.768Z,94.8
2022-11-28T10:42:58.817Z,95
2022-11-28T10:44:01.767Z,95.4
2022-11-28T10:45:03.811Z,95.5
2022-11-28T10:46:07.829Z,95.7
2022-11-28T10:47:09.767Z,95.4
2022-11-28T10:48:38.474Z,94.3
2022-11-28T10:49:13.775Z,94.4
2022-11-28T10:50:16.116Z,96
2022-11-28T10:51:17.770Z,96.4
2022-11-28T10:52:19.775Z,96.2
2022-11-28T10:53:21.769Z,96.4
2022-11-28T10:54:23.775Z,96.7
2022-11-28T10:55:25.799Z,96.8
2022-11-28T10:56:27.776Z,96.8
2022-11-28T10:57:29.767Z,96.2
2022-11-28T10:58:31.988Z,96
2022-11-28T10:59:33.798Z,96
2022-11-28T11:00:36.775Z,95.5
2022-11-28T11:01:38.875Z,95.3
2022-11-28T11:03:42.779Z,95.5
2022-11-28T11:04:44.801Z,95.4
2022-11-28T11:05:46.777Z,95.7
2022-11-28T11:07:07.584Z,95.8
2022-11-28T11:07:50.829Z,95.5
2022-11-28T11:08:52.783Z,95.8
2022-11-28T11:09:54.783Z,96.1
2022-11-28T11:10:56.990Z,96.3
2022-11-28T11:11:58.798Z,96.3
2022-11-28T11:13:00.785Z,96.5
2022-11-28T11:14:04.000Z,96.4
2022-11-28T11:15:06.794Z,96.7
2022-11-28T11:16:08.847Z,97.2
2022-11-28T11:17:10.787Z,97.3
2022-11-28T11:18:12.792Z,96.4
2022-11-28T11:19:14.795Z,96.2
2022-11-28T11:20:16.793Z,96
2022-11-28T11:21:18.979Z,95.5
2022-11-28T11:22:20.793Z,95.4
2022-11-28T11:23:22.790Z,95.4
2022-11-28T11:24:25.799Z,95.2
2022-11-28T11:25:27.795Z,95.2
2022-11-28T11:26:29.843Z,94.7
2022-11-28T11:27:31.800Z,94.2
2022-11-28T11:28:33.814Z,94.1
2022-11-28T11:29:36.835Z,94.3
2022-11-28T11:30:39.051Z,94.1
2022-11-28T11:31:40.810Z,93.5
2022-11-28T11:32:44.474Z,93.5
2022-11-28T11:33:45.803Z,93.8
2022-11-28T11:34:48.805Z,94.7
2022-11-28T11:35:50.796Z,95.3
2022-11-28T11:36:52.847Z,94.7
2022-11-28T11:37:54.795Z,94.8
2022-11-28T11:38:56.807Z,94.9
2022-11-28T11:39:58.802Z,95.2
2022-11-28T11:41:01.804Z,95.7
2022-11-28T11:42:03.842Z,95.1
2022-11-28T11:43:06.802Z,94.4
2022-11-28T11:44:08.816Z,94.3
2022-11-28T11:45:10.824Z,94.4
2022-11-28T11:46:12.955Z,94.4
2022-11-28T11:47:14.814Z,95.2
2022-11-28T11:48:16.812Z,95.5
2022-11-28T11:49:18.816Z,95.6
2022-11-28T11:50:20.852Z,95.8
2022-11-28T11:51:22.831Z,96.4
2022-11-28T11:52:24.811Z,96.5
2022-11-28T11:53:26.818Z,96.8
2022-11-28T11:54:28.816Z,96.4
2022-11-28T11:55:30.851Z,96.6
2022-11-28T11:56:32.806Z,96.2
2022-11-28T11:57:35.013Z,95.9
2022-11-28T11:58:36.811Z,94.5
2022-11-28T11:59:38.861Z,94
2022-11-28T12:00:40.819Z,94.1
2022-11-28T12:01:42.805Z,95
2022-11-28T12:02:44.992Z,94.4
2022-11-28T12:03:46.917Z,94.4
2022-11-28T12:04:53.850Z,95
2022-11-28T12:06:13.342Z,95.1
2022-11-28T12:06:53.814Z,95.8
2022-11-28T12:07:55.893Z,95.8
2022-11-28T12:08:57.817Z,95.7
2022-11-28T12:10:04.338Z,95.1
2022-11-28T12:11:01.820Z,94.7
2022-11-28T12:12:03.832Z,94.3
2022-11-28T12:13:07.831Z,94.6
2022-11-28T12:14:10.014Z,95.1
2022-11-28T12:15:12.844Z,95.1
2022-11-28T12:16:14.917Z,94.8
2022-11-28T12:17:46.834Z,94.7
2022-11-28T12:18:18.828Z,95.1
2022-11-28T12:19:20.837Z,95.2
2022-11-28T12:20:22.828Z,95.3
2022-11-28T12:21:24.846Z,94.8
2022-11-28T12:22:26.836Z,94.7
2022-11-28T12:23:29.885Z,94.9
2022-11-28T12:24:31.874Z,95.1
2022-11-28T12:25:33.823Z,94.9
2022-11-28T12:26:35.827Z,95.1
2022-11-28T12:27:37.833Z,95.1
2022-11-28T12:28:39.830Z,96.2
2022-11-28T12:29:42.232Z,96.6
2022-11-28T12:30:44.931Z,97
2022-11-28T12:31:45.871Z,96.4
2022-11-28T12:32:47.839Z,96
2022-11-28T12:33:50.838Z,95.1
2022-11-28T12:34:52.849Z,94.9
2022-11-28T12:35:59.017Z,95.3
2022-11-28T12:36:56.837Z,95.4
2022-11-28T12:38:10.837Z,95.3
2022-11-28T12:39:00.843Z,95.3
2022-11-28T12:40:03.886Z,95.4
2022-11-28T12:41:07.833Z,95.4
2022-11-28T12:42:09.847Z,95
2022-11-28T12:43:11.836Z,95
2022-11-28T12:44:13.845Z,95.3
2022-11-28T12:45:15.848Z,95
2022-11-28T12:46:17.887Z,95.4
2022-11-28T12:47:19.886Z,95.3
2022-11-28T12:48:21.851Z,95.2
2022-11-28T12:49:23.844Z,95
2022-11-28T12:50:25.868Z,95
2022-11-28T12:51:27.830Z,95
2022-11-28T12:52:29.843Z,95.7
2022-11-28T12:53:31.848Z,95.6
2022-11-28T12:54:34.848Z,95
2022-11-28T12:55:36.887Z,95
2022-11-28T12:56:38.949Z,95
2022-11-28T12:57:40.854Z,95.4
2022-11-28T12:58:42.861Z,95.1
2022-11-28T12:59:45.282Z,95.6
2022-11-28T13:00:47.900Z,96.4
2022-11-28T13:01:49.873Z,96
2022-11-28T13:02:51.981Z,95.8
2022-11-28T13:03:53.960Z,96.5
2022-11-28T13:06:34.973Z,97.1
2022-11-28T13:07:35.021Z,97.2
2022-11-28T13:09:34.942Z,96.8
2022-11-28T13:10:34.969Z,96.8
2022-11-28T13:11:34.948Z,97.1
2022-11-28T13:13:15.897Z,97
2022-11-28T13:14:17.861Z,97.5
2022-11-28T13:15:19.857Z,97.4
2022-11-28T13:16:26.801Z,97.2
2022-11-28T13:17:23.860Z,96.7
2022-11-28T13:18:25.896Z,97
2022-11-28T13:19:27.860Z,97
2022-11-28T13:20:29.861Z,96.9
2022-11-28T13:21:31.908Z,96.5
2022-11-28T13:22:33.865Z,96.1
2022-11-28T13:23:35.873Z,96
2022-11-28T13:24:38.865Z,96.2
2022-11-28T13:26:42.903Z,95.9
2022-11-28T13:27:44.876Z,95.7
2022-11-28T13:28:46.905Z,95.1
2022-11-28T13:29:48.868Z,95.3
2022-11-28T13:30:50.888Z,96.2
2022-11-28T13:31:57.338Z,96.1
2022-11-28T13:32:54.874Z,95.7
2022-11-28T13:33:56.871Z,95.3
2022-11-28T13:34:58.877Z,96
2022-11-28T13:36:01.026Z,95.7
2022-11-28T13:38:37.214Z,95.7
2022-11-28T13:39:34.991Z,95.5
2022-11-28T13:40:34.951Z,94.9
2022-11-28T13:42:06.341Z,94.3
2022-11-28T13:43:34.955Z,94.4
2022-11-28T13:44:35.226Z,95.2
2022-11-28T13:45:34.956Z,95
2022-11-28T13:46:35.027Z,94.9
2022-11-28T13:47:34.997Z,94.4
2022-11-28T13:49:06.055Z,94.2
2022-11-28T13:49:34.991Z,94.1
2022-11-28T13:50:34.957Z,94.6
2022-11-28T13:51:34.955Z,95.1
2022-11-28T13:52:35.924Z,95.4
2022-11-28T13:53:37.895Z,96.7
2022-11-28T13:54:40.883Z,96.4
2022-11-28T13:55:42.885Z,96.2
2022-11-28T13:56:44.897Z,96.4
2022-11-28T13:57:47.929Z,96.5
2022-11-28T13:58:49.884Z,96.5
2022-11-28T13:59:51.946Z,96
2022-11-28T14:00:53.888Z,96.1
2022-11-28T14:01:55.998Z,96
2022-11-28T14:02:57.963Z,95.9
2022-11-28T14:04:34.997Z,95.7
2022-11-28T14:05:34.974Z,95.9
2022-11-28T14:06:35.015Z,95.7